Scarboro, Illinois
Current Conditions -  °F | °C
As of 5:35 PM on Wednesday 22 Oct 2014 (Local Time) from KRPJ Reporting Station
Clear Clear  
Wind Chill: 55°   Ceiling: Unl
Heat Index: 55°   Visibility: 10mi
Dew Point: 35°   Wind: 0mph
Humidity: 46%   Direction: NA
Pressure: 30.25"   Gusts: NA
Location:  41.8255°N, 89.0204°W
Report Text: KRPJ 222235Z AUTO 00000KT 10SM CLR 13/02 A3025 RMK AO2 T01300017
Loading
Personal Weather Stations






























Interactive Weather Map
Tropical Storm Tracking
New forecast layout! Learn more

10-Day Weather Forecast

Advertisements
Track Severe Weather on mobile